East Calais, Vermont
Current Conditions -  °F | °C
As of 9:36 AM on Saturday 25 Oct 2014 (Local Time) from KMPV Reporting Station
Haze Haze  
Wind Chill: 39°   Ceiling: Unl
Heat Index: 39°   Visibility: 2mi
Dew Point: 38°   Wind: 3mph
Humidity: 96%   Direction: 60°ENE
Pressure: 29.78"   Gusts: NA
Location:  44.37°N, 72.43°W
Report Text: KMPV 251336Z AUTO 06003KT 2SM BR CLR 04/03 A2978 RMK AO2 T00390033 $
Loading
Personal Weather Stations






























Interactive Weather Map
Tropical Storm Tracking
New forecast layout! Learn more

10-Day Weather Forecast

Advertisements
Track Severe Weather on mobile